sensor_id;sensor_type;location;lat;lon;timestamp;pressure;altitude;pressure_sealevel;temperature;humidity
40730;BME280;26418;50.070;8.436;2023-04-15T00:00:08;99122.03;;;7.17;65.38
40730;BME280;26418;50.070;8.436;2023-04-15T00:02:34;99102.63;;;7.06;65.42
40730;BME280;26418;50.070;8.436;2023-04-15T00:05:01;99119.72;;;7.10;65.75
40730;BME280;26418;50.070;8.436;2023-04-15T00:07:26;99121.13;;;7.07;66.02
40730;BME280;26418;50.070;8.436;2023-04-15T00:09:52;99117.16;;;7.05;66.10
40730;BME280;26418;50.070;8.436;2023-04-15T00:12:19;99105.41;;;7.01;65.92
40730;BME280;26418;50.070;8.436;2023-04-15T00:14:45;99120.41;;;7.02;66.07
40730;BME280;26418;50.070;8.436;2023-04-15T00:17:11;99116.44;;;6.99;66.21
40730;BME280;26418;50.070;8.436;2023-04-15T00:19:36;99109.19;;;7.00;66.05
40730;BME280;26418;50.070;8.436;2023-04-15T00:22:02;99108.88;;;7.01;66.11
40730;BME280;26418;50.070;8.436;2023-04-15T00:24:27;99114.84;;;6.98;66.18
40730;BME280;26418;50.070;8.436;2023-04-15T00:26:53;99117.53;;;6.98;66.30
40730;BME280;26418;50.070;8.436;2023-04-15T00:29:18;99113.25;;;6.97;66.47
40730;BME280;26418;50.070;8.436;2023-04-15T00:31:44;99111.16;;;6.94;66.53
40730;BME280;26418;50.070;8.436;2023-04-15T00:34:09;99098.91;;;6.88;66.73
40730;BME280;26418;50.070;8.436;2023-04-15T00:36:35;99101.09;;;6.86;66.99
40730;BME280;26418;50.070;8.436;2023-04-15T00:39:00;99104.50;;;6.91;67.21
40730;BME280;26418;50.070;8.436;2023-04-15T00:41:27;99097.41;;;6.96;66.81
40730;BME280;26418;50.070;8.436;2023-04-15T00:43:52;99094.72;;;6.96;66.62
40730;BME280;26418;50.070;8.436;2023-04-15T00:46:19;99096.31;;;6.97;66.84
40730;BME280;26418;50.070;8.436;2023-04-15T00:48:46;99085.06;;;6.95;66.84
40730;BME280;26418;50.070;8.436;2023-04-15T00:51:12;99092.84;;;6.96;66.89
40730;BME280;26418;50.070;8.436;2023-04-15T00:53:38;99092.63;;;6.92;66.83
40730;BME280;26418;50.070;8.436;2023-04-15T00:56:04;99092.16;;;6.90;67.00
40730;BME280;26418;50.070;8.436;2023-04-15T00:58:29;99086.94;;;6.80;67.42
40730;BME280;26418;50.070;8.436;2023-04-15T01:00:55;99097.69;;;6.80;67.51
40730;BME280;26418;50.070;8.436;2023-04-15T01:03:21;99100.75;;;6.73;67.60
40730;BME280;26418;50.070;8.436;2023-04-15T01:05:46;99100.66;;;6.65;67.95
40730;BME280;26418;50.070;8.436;2023-04-15T01:08:12;99092.44;;;6.56;68.38
40730;BME280;26418;50.070;8.436;2023-04-15T01:10:38;99092.03;;;6.49;68.71
40730;BME280;26418;50.070;8.436;2023-04-15T01:13:04;99099.94;;;6.59;68.46
40730;BME280;26418;50.070;8.436;2023-04-15T01:15:29;99099.63;;;6.60;68.60
40730;BME280;26418;50.070;8.436;2023-04-15T01:17:57;99093.47;;;6.60;68.43
40730;BME280;26418;50.070;8.436;2023-04-15T01:20:23;99099.94;;;6.59;68.26
40730;BME280;26418;50.070;8.436;2023-04-15T01:22:49;99100.72;;;6.59;68.24
40730;BME280;26418;50.070;8.436;2023-04-15T01:25:18;99083.38;;;6.52;68.45
40730;BME280;26418;50.070;8.436;2023-04-15T01:27:44;99097.91;;;6.51;68.49
40730;BME280;26418;50.070;8.436;2023-04-15T01:30:10;99107.56;;;6.52;68.81
40730;BME280;26418;50.070;8.436;2023-04-15T01:32:36;99089.50;;;6.38;68.92
40730;BME280;26418;50.070;8.436;2023-04-15T01:35:02;99108.75;;;6.45;69.16
40730;BME280;26418;50.070;8.436;2023-04-15T01:37:27;99108.22;;;6.43;69.25
40730;BME280;26418;50.070;8.436;2023-04-15T01:39:53;99097.44;;;6.29;69.30
40730;BME280;26418;50.070;8.436;2023-04-15T01:42:20;99098.81;;;6.27;69.78
40730;BME280;26418;50.070;8.436;2023-04-15T01:44:45;99107.75;;;6.22;69.97
40730;BME280;26418;50.070;8.436;2023-04-15T01:47:11;99101.84;;;6.20;70.42
40730;BME280;26418;50.070;8.436;2023-04-15T01:49:36;99103.25;;;6.18;70.85
40730;BME280;26418;50.070;8.436;2023-04-15T01:52:01;99102.72;;;6.16;70.87
40730;BME280;26418;50.070;8.436;2023-04-15T01:54:27;99099.25;;;6.15;70.93
40730;BME280;26418;50.070;8.436;2023-04-15T01:56:52;99104.03;;;6.18;70.94
40730;BME280;26418;50.070;8.436;2023-04-15T01:59:17;99101.06;;;6.20;71.06
40730;BME280;26418;50.070;8.436;2023-04-15T02:01:43;99094.88;;;6.19;71.11
40730;BME280;26418;50.070;8.436;2023-04-15T02:04:10;99095.09;;;6.23;70.96
40730;BME280;26418;50.070;8.436;2023-04-15T02:06:44;99093.28;;;6.18;70.90
40730;BME280;26418;50.070;8.436;2023-04-15T02:09:10;99095.50;;;6.16;71.22
40730;BME280;26418;50.070;8.436;2023-04-15T02:11:35;99102.16;;;6.19;71.29
40730;BME280;26418;50.070;8.436;2023-04-15T02:14:03;99101.94;;;6.15;71.25
40730;BME280;26418;50.070;8.436;2023-04-15T02:16:31;99081.19;;;6.02;71.49
40730;BME280;26418;50.070;8.436;2023-04-15T02:18:56;99099.41;;;6.05;71.57
40730;BME280;26418;50.070;8.436;2023-04-15T02:21:21;99102.41;;;5.98;72.12
40730;BME280;26418;50.070;8.436;2023-04-15T02:23:47;99083.06;;;5.82;72.36
40730;BME280;26418;50.070;8.436;2023-04-15T02:26:13;99101.47;;;5.89;72.52
40730;BME280;26418;50.070;8.436;2023-04-15T02:28:38;99094.28;;;5.84;73.03
40730;BME280;26418;50.070;8.436;2023-04-15T02:31:05;99101.03;;;5.81;73.19
40730;BME280;26418;50.070;8.436;2023-04-15T02:33:30;99097.25;;;5.82;73.55
40730;BME280;26418;50.070;8.436;2023-04-15T02:35:56;99091.03;;;5.87;73.63
40730;BME280;26418;50.070;8.436;2023-04-15T02:38:21;99095.44;;;5.97;73.23
40730;BME280;26418;50.070;8.436;2023-04-15T02:40:47;99096.25;;;5.97;73.13
40730;BME280;26418;50.070;8.436;2023-04-15T02:43:14;99107.00;;;5.97;72.74
40730;BME280;26418;50.070;8.436;2023-04-15T02:45:41;99101.19;;;5.90;72.80
40730;BME280;26418;50.070;8.436;2023-04-15T02:48:07;99090.06;;;5.78;73.14
40730;BME280;26418;50.070;8.436;2023-04-15T02:50:33;99077.59;;;5.68;73.18
40730;BME280;26418;50.070;8.436;2023-04-15T02:52:58;99086.22;;;5.65;73.82
40730;BME280;26418;50.070;8.436;2023-04-15T02:55:25;99101.44;;;5.70;74.31
40730;BME280;26418;50.070;8.436;2023-04-15T02:57:51;99098.47;;;5.71;74.09
40730;BME280;26418;50.070;8.436;2023-04-15T03:00:16;99093.41;;;5.70;73.77
40730;BME280;26418;50.070;8.436;2023-04-15T03:02:42;99097.25;;;5.82;73.56
40730;BME280;26418;50.070;8.436;2023-04-15T03:05:13;99091.66;;;5.79;73.37
40730;BME280;26418;50.070;8.436;2023-04-15T03:07:39;99101.31;;;5.80;73.45
40730;BME280;26418;50.070;8.436;2023-04-15T03:10:07;99096.50;;;5.77;73.12
40730;BME280;26418;50.070;8.436;2023-04-15T03:12:33;99110.44;;;5.79;73.28
40730;BME280;26418;50.070;8.436;2023-04-15T03:14:58;99107.88;;;5.69;73.27
40730;BME280;26418;50.070;8.436;2023-04-15T03:17:24;99117.03;;;5.67;73.76
40730;BME280;26418;50.070;8.436;2023-04-15T03:19:49;99113.56;;;5.67;74.07
40730;BME280;26418;50.070;8.436;2023-04-15T03:22:15;99100.69;;;5.64;74.19
40730;BME280;26418;50.070;8.436;2023-04-15T03:24:40;99110.13;;;5.61;74.21
40730;BME280;26418;50.070;8.436;2023-04-15T03:27:06;99101.00;;;5.62;74.38
40730;BME280;26418;50.070;8.436;2023-04-15T03:29:32;99097.56;;;5.57;74.79
40730;BME280;26418;50.070;8.436;2023-04-15T03:31:57;99098.31;;;5.62;74.54
40730;BME280;26418;50.070;8.436;2023-04-15T03:34:23;99109.03;;;5.62;74.48
40730;BME280;26418;50.070;8.436;2023-04-15T03:36:48;99103.16;;;5.60;74.73
40730;BME280;26418;50.070;8.436;2023-04-15T03:39:13;99099.41;;;5.61;74.89
40730;BME280;26418;50.070;8.436;2023-04-15T03:41:39;99091.91;;;5.58;74.97
40730;BME280;26418;50.070;8.436;2023-04-15T03:44:04;99098.03;;;5.64;74.95
40730;BME280;26418;50.070;8.436;2023-04-15T03:46:30;99099.09;;;5.63;75.05
40730;BME280;26418;50.070;8.436;2023-04-15T03:48:56;99087.66;;;5.57;75.28
40730;BME280;26418;50.070;8.436;2023-04-15T03:51:21;99089.69;;;5.65;75.58
40730;BME280;26418;50.070;8.436;2023-04-15T03:53:46;99090.78;;;5.64;75.38
40730;BME280;26418;50.070;8.436;2023-04-15T03:56:12;99082.22;;;5.62;75.38
40730;BME280;26418;50.070;8.436;2023-04-15T03:58:37;99092.22;;;5.57;75.72
40730;BME280;26418;50.070;8.436;2023-04-15T04:01:02;99095.72;;;5.57;76.15
40730;BME280;26418;50.070;8.436;2023-04-15T04:03:27;99095.06;;;5.65;76.07
40730;BME280;26418;50.070;8.436;2023-04-15T04:05:53;99073.22;;;5.53;75.48
40730;BME280;26418;50.070;8.436;2023-04-15T04:08:18;99087.94;;;5.56;75.71
40730;BME280;26418;50.070;8.436;2023-04-15T04:10:45;99088.78;;;5.51;76.34
40730;BME280;26418;50.070;8.436;2023-04-15T04:13:11;99093.16;;;5.47;76.66
40730;BME280;26418;50.070;8.436;2023-04-15T04:15:36;99086.47;;;5.44;77.13
40730;BME280;26418;50.070;8.436;2023-04-15T04:18:01;99080.88;;;5.41;77.04
40730;BME280;26418;50.070;8.436;2023-04-15T04:20:29;99086.06;;;5.32;77.09
40730;BME280;26418;50.070;8.436;2023-04-15T04:22:56;99088.53;;;5.28;77.44
40730;BME280;26418;50.070;8.436;2023-04-15T04:25:21;99089.66;;;5.22;77.84
40730;BME280;26418;50.070;8.436;2023-04-15T04:27:47;99088.13;;;5.16;78.08
40730;BME280;26418;50.070;8.436;2023-04-15T04:30:12;99096.19;;;5.16;78.69
40730;BME280;26418;50.070;8.436;2023-04-15T04:32:37;99098.03;;;5.15;78.87
40730;BME280;26418;50.070;8.436;2023-04-15T04:35:03;99092.16;;;5.13;78.94
40730;BME280;26418;50.070;8.436;2023-04-15T04:37:29;99098.03;;;5.15;79.08
40730;BME280;26418;50.070;8.436;2023-04-15T04:39:54;99096.22;;;5.11;79.42
40730;BME280;26418;50.070;8.436;2023-04-15T04:42:20;99095.88;;;5.17;79.56
40730;BME280;26418;50.070;8.436;2023-04-15T04:44:45;99098.72;;;5.26;79.45
40730;BME280;26418;50.070;8.436;2023-04-15T04:47:11;99102.44;;;5.30;79.33
40730;BME280;26418;50.070;8.436;2023-04-15T04:49:36;99101.84;;;5.33;79.15
40730;BME280;26418;50.070;8.436;2023-04-15T04:52:01;99092.28;;;5.27;79.13
40730;BME280;26418;50.070;8.436;2023-04-15T04:54:27;99098.09;;;5.34;79.36
40730;BME280;26418;50.070;8.436;2023-04-15T04:56:52;99095.31;;;5.45;79.10
40730;BME280;26418;50.070;8.436;2023-04-15T04:59:17;99097.91;;;5.50;79.06
40730;BME280;26418;50.070;8.436;2023-04-15T05:01:43;99095.50;;;5.54;78.94
40730;BME280;26418;50.070;8.436;2023-04-15T05:04:08;99106.88;;;5.64;78.75
40730;BME280;26418;50.070;8.436;2023-04-15T05:06:33;99117.63;;;5.64;78.31
40730;BME280;26418;50.070;8.436;2023-04-15T05:09:00;99115.44;;;5.66;78.46
40730;BME280;26418;50.070;8.436;2023-04-15T05:11:27;99109.50;;;5.70;78.33
40730;BME280;26418;50.070;8.436;2023-04-15T05:13:52;99113.56;;;5.67;78.44
40730;BME280;26418;50.070;8.436;2023-04-15T05:16:17;99126.09;;;5.72;78.36
40730;BME280;26418;50.070;8.436;2023-04-15T05:18:44;99113.78;;;5.71;78.30
40730;BME280;26418;50.070;8.436;2023-04-15T05:21:09;99115.38;;;5.72;78.48
40730;BME280;26418;50.070;8.436;2023-04-15T05:23:35;99120.19;;;5.75;78.54
40730;BME280;26418;50.070;8.436;2023-04-15T05:26:00;99121.19;;;5.79;78.56
40730;BME280;26418;50.070;8.436;2023-04-15T05:28:25;99109.16;;;5.76;78.51
40730;BME280;26418;50.070;8.436;2023-04-15T05:30:51;99126.41;;;5.89;78.08
40730;BME280;26418;50.070;8.436;2023-04-15T05:33:16;99125.03;;;5.92;78.18
40730;BME280;26418;50.070;8.436;2023-04-15T05:35:42;99130.72;;;5.90;78.19
40730;BME280;26418;50.070;8.436;2023-04-15T05:38:07;99125.91;;;5.87;78.17
40730;BME280;26418;50.070;8.436;2023-04-15T05:40:32;99134.69;;;5.93;78.76
40730;BME280;26418;50.070;8.436;2023-04-15T05:42:58;99134.69;;;5.93;78.27
40730;BME280;26418;50.070;8.436;2023-04-15T05:45:23;99132.78;;;5.93;77.22
40730;BME280;26418;50.070;8.436;2023-04-15T05:47:48;99137.53;;;6.02;75.44
40730;BME280;26418;50.070;8.436;2023-04-15T05:50:15;99146.41;;;6.02;74.50
40730;BME280;26418;50.070;8.436;2023-04-15T05:52:40;99139.97;;;6.03;74.25
40730;BME280;26418;50.070;8.436;2023-04-15T05:55:06;99131.41;;;6.01;74.02
40730;BME280;26418;50.070;8.436;2023-04-15T05:57:31;99135.25;;;6.14;74.32
40730;BME280;26418;50.070;8.436;2023-04-15T05:59:57;99141.56;;;6.23;74.87
40730;BME280;26418;50.070;8.436;2023-04-15T06:02:22;99139.88;;;6.27;75.27
40730;BME280;26418;50.070;8.436;2023-04-15T06:04:47;99156.16;;;6.36;75.39
40730;BME280;26418;50.070;8.436;2023-04-15T06:07:13;99156.56;;;6.43;75.41
40730;BME280;26418;50.070;8.436;2023-04-15T06:09:38;99154.63;;;6.49;75.74
40730;BME280;26418;50.070;8.436;2023-04-15T06:12:03;99152.63;;;6.55;75.45
40730;BME280;26418;50.070;8.436;2023-04-15T06:14:30;99151.75;;;6.59;75.40
40730;BME280;26418;50.070;8.436;2023-04-15T06:16:56;99163.53;;;6.64;75.07
40730;BME280;26418;50.070;8.436;2023-04-15T06:19:21;99161.34;;;6.66;74.76
40730;BME280;26418;50.070;8.436;2023-04-15T06:21:46;99168.66;;;6.79;74.46
40730;BME280;26418;50.070;8.436;2023-04-15T06:24:12;99168.50;;;6.89;73.95
40730;BME280;26418;50.070;8.436;2023-04-15T06:26:37;99164.81;;;6.99;73.46
40730;BME280;26418;50.070;8.436;2023-04-15T06:29:02;99168.94;;;7.11;73.28
40730;BME280;26418;50.070;8.436;2023-04-15T06:31:28;99174.94;;;7.21;72.93
40730;BME280;26418;50.070;8.436;2023-04-15T06:33:54;99164.50;;;7.34;72.34
40730;BME280;26418;50.070;8.436;2023-04-15T06:36:19;99168.09;;;7.43;71.91
40730;BME280;26418;50.070;8.436;2023-04-15T06:38:45;99167.63;;;7.55;71.62
40730;BME280;26418;50.070;8.436;2023-04-15T06:41:10;99173.41;;;7.62;71.21
40730;BME280;26418;50.070;8.436;2023-04-15T06:43:36;99173.19;;;7.72;71.13
40730;BME280;26418;50.070;8.436;2023-04-15T06:46:01;99183.75;;;7.83;71.01
40730;BME280;26418;50.070;8.436;2023-04-15T06:48:26;99167.91;;;7.81;71.10
40730;BME280;26418;50.070;8.436;2023-04-15T06:50:52;99188.72;;;8.03;70.68
40730;BME280;26418;50.070;8.436;2023-04-15T06:53:17;99176.16;;;8.13;70.36
40730;BME280;26418;50.070;8.436;2023-04-15T06:55:43;99188.47;;;8.28;69.50
40730;BME280;26418;50.070;8.436;2023-04-15T06:58:08;99189.97;;;8.34;68.74
40730;BME280;26418;50.070;8.436;2023-04-15T07:00:33;99192.66;;;8.34;68.24
40730;BME280;26418;50.070;8.436;2023-04-15T07:02:59;99189.84;;;8.39;67.34
40730;BME280;26418;50.070;8.436;2023-04-15T07:05:28;99193.94;;;8.37;67.38
40730;BME280;26418;50.070;8.436;2023-04-15T07:07:53;99193.31;;;8.40;66.64
40730;BME280;26418;50.070;8.436;2023-04-15T07:10:18;99189.06;;;8.39;66.09
40730;BME280;26418;50.070;8.436;2023-04-15T07:12:44;99195.06;;;8.36;66.40
40730;BME280;26418;50.070;8.436;2023-04-15T07:15:10;99189.97;;;8.34;66.84
40730;BME280;26418;50.070;8.436;2023-04-15T07:17:35;99194.25;;;8.35;67.14
40730;BME280;26418;50.070;8.436;2023-04-15T07:20:01;99180.66;;;8.40;66.94
40730;BME280;26418;50.070;8.436;2023-04-15T07:22:26;99185.25;;;8.40;66.61
40730;BME280;26418;50.070;8.436;2023-04-15T07:24:52;99186.66;;;8.51;67.48
40730;BME280;26418;50.070;8.436;2023-04-15T07:27:17;99185.31;;;8.62;66.73
40730;BME280;26418;50.070;8.436;2023-04-15T07:29:42;99177.00;;;8.73;66.72
40730;BME280;26418;50.070;8.436;2023-04-15T07:32:08;99177.38;;;8.80;66.33
40730;BME280;26418;50.070;8.436;2023-04-15T07:34:34;99178.50;;;8.88;66.01
40730;BME280;26418;50.070;8.436;2023-04-15T07:37:00;99160.28;;;8.85;65.76
40730;BME280;26418;50.070;8.436;2023-04-15T07:39:25;99178.31;;;9.07;64.83
40730;BME280;26418;50.070;8.436;2023-04-15T07:41:51;99179.03;;;9.21;64.67
40730;BME280;26418;50.070;8.436;2023-04-15T07:44:16;99182.94;;;9.38;63.28
40730;BME280;26418;50.070;8.436;2023-04-15T07:46:41;99183.94;;;9.51;62.47
40730;BME280;26418;50.070;8.436;2023-04-15T07:49:07;99187.81;;;9.67;62.54
40730;BME280;26418;50.070;8.436;2023-04-15T07:51:32;99169.75;;;9.77;62.56
40730;BME280;26418;50.070;8.436;2023-04-15T07:53:58;99181.38;;;10.03;63.38
40730;BME280;26418;50.070;8.436;2023-04-15T07:56:23;99177.13;;;10.20;63.70
40730;BME280;26418;50.070;8.436;2023-04-15T07:58:48;99180.50;;;10.34;64.10
40730;BME280;26418;50.070;8.436;2023-04-15T08:01:14;99174.66;;;10.50;63.92
40730;BME280;26418;50.070;8.436;2023-04-15T08:03:39;99183.38;;;10.64;63.23
40730;BME280;26418;50.070;8.436;2023-04-15T08:06:05;99174.19;;;10.74;62.83
40730;BME280;26418;50.070;8.436;2023-04-15T08:08:30;99185.13;;;10.95;64.71
40730;BME280;26418;50.070;8.436;2023-04-15T08:10:57;99192.03;;;11.31;68.98
40730;BME280;26418;50.070;8.436;2023-04-15T08:13:22;99185.72;;;11.66;66.41
40730;BME280;26418;50.070;8.436;2023-04-15T08:16:12;99183.00;;;11.96;64.28
40730;BME280;26418;50.070;8.436;2023-04-15T08:18:38;99176.66;;;12.22;63.25
40730;BME280;26418;50.070;8.436;2023-04-15T08:21:03;99178.72;;;12.46;62.16
40730;BME280;26418;50.070;8.436;2023-04-15T08:23:30;99182.34;;;12.50;59.36
40730;BME280;26418;50.070;8.436;2023-04-15T08:25:56;99182.69;;;12.49;60.77
40730;BME280;26418;50.070;8.436;2023-04-15T08:28:21;99178.16;;;12.53;60.52
40730;BME280;26418;50.070;8.436;2023-04-15T08:30:47;99178.13;;;12.62;61.85
40730;BME280;26418;50.070;8.436;2023-04-15T08:33:12;99181.00;;;12.78;61.17
40730;BME280;26418;50.070;8.436;2023-04-15T08:35:37;99179.03;;;12.99;59.48
40730;BME280;26418;50.070;8.436;2023-04-15T08:38:03;99176.56;;;13.07;55.82
40730;BME280;26418;50.070;8.436;2023-04-15T08:40:37;99176.34;;;13.12;56.06
40730;BME280;26418;50.070;8.436;2023-04-15T08:43:07;99173.75;;;13.15;56.36
40730;BME280;26418;50.070;8.436;2023-04-15T08:45:33;99183.97;;;13.31;56.84
40730;BME280;26418;50.070;8.436;2023-04-15T08:48:01;99177.47;;;13.44;56.91
40730;BME280;26418;50.070;8.436;2023-04-15T08:50:28;99177.81;;;13.55;55.72
40730;BME280;26418;50.070;8.436;2023-04-15T08:52:58;99170.00;;;13.66;55.39
40730;BME280;26418;50.070;8.436;2023-04-15T08:55:29;99174.31;;;13.79;54.73
40730;BME280;26418;50.070;8.436;2023-04-15T08:57:57;99174.09;;;13.84;54.47
40730;BME280;26418;50.070;8.436;2023-04-15T09:00:23;99166.59;;;13.94;53.52
40730;BME280;26418;50.070;8.436;2023-04-15T09:02:49;99179.59;;;14.13;53.32
40730;BME280;26418;50.070;8.436;2023-04-15T09:05:14;99179.34;;;14.30;52.27
40730;BME280;26418;50.070;8.436;2023-04-15T09:07:41;99173.66;;;14.36;51.95
40730;BME280;26418;50.070;8.436;2023-04-15T09:10:07;99167.47;;;14.23;49.06
40730;BME280;26418;50.070;8.436;2023-04-15T09:12:34;99168.38;;;14.14;50.40
40730;BME280;26418;50.070;8.436;2023-04-15T09:15:00;99185.50;;;14.15;50.57
40730;BME280;26418;50.070;8.436;2023-04-15T09:17:26;99171.22;;;14.18;50.40
40730;BME280;26418;50.070;8.436;2023-04-15T09:20:16;99172.31;;;14.29;50.24
40730;BME280;26418;50.070;8.436;2023-04-15T09:22:46;99186.47;;;14.35;49.67
40730;BME280;26418;50.070;8.436;2023-04-15T09:25:24;99189.19;;;14.48;49.13
40730;BME280;26418;50.070;8.436;2023-04-15T09:27:52;99195.25;;;14.57;47.52
40730;BME280;26418;50.070;8.436;2023-04-15T09:30:17;99189.03;;;14.69;48.58
40730;BME280;26418;50.070;8.436;2023-04-15T09:32:54;99196.28;;;14.93;49.65
40730;BME280;26418;50.070;8.436;2023-04-15T09:35:20;99197.94;;;15.26;49.26
40730;BME280;26418;50.070;8.436;2023-04-15T09:37:46;99198.03;;;15.62;47.95
40730;BME280;26418;50.070;8.436;2023-04-15T09:40:12;99204.50;;;15.85;42.21
40730;BME280;26418;50.070;8.436;2023-04-15T09:42:56;99203.75;;;15.72;39.73
40730;BME280;26418;50.070;8.436;2023-04-15T09:45:22;99194.97;;;15.47;36.55
40730;BME280;26418;50.070;8.436;2023-04-15T09:47:48;99201.25;;;15.19;34.61
40730;BME280;26418;50.070;8.436;2023-04-15T09:50:15;99200.47;;;15.19;35.61
40730;BME280;26418;50.070;8.436;2023-04-15T09:52:42;99192.75;;;15.21;34.70
40730;BME280;26418;50.070;8.436;2023-04-15T09:55:08;99205.56;;;15.20;34.02
40730;BME280;26418;50.070;8.436;2023-04-15T09:57:35;99197.97;;;14.98;35.01
40730;BME280;26418;50.070;8.436;2023-04-15T10:00:05;99203.78;;;14.96;34.68
40730;BME280;26418;50.070;8.436;2023-04-15T10:02:36;99215.16;;;14.86;35.33
40730;BME280;26418;50.070;8.436;2023-04-15T10:05:01;99215.53;;;14.72;35.73
40730;BME280;26418;50.070;8.436;2023-04-15T10:07:27;99215.88;;;14.58;35.56
40730;BME280;26418;50.070;8.436;2023-04-15T10:09:53;99219.22;;;14.51;35.21
40730;BME280;26418;50.070;8.436;2023-04-15T10:12:19;99217.50;;;14.46;34.17
40730;BME280;26418;50.070;8.436;2023-04-15T10:14:55;99233.28;;;14.28;34.38
40730;BME280;26418;50.070;8.436;2023-04-15T10:17:26;99233.53;;;14.23;35.20
40730;BME280;26418;50.070;8.436;2023-04-15T10:19:53;99232.97;;;14.18;35.61
40730;BME280;26418;50.070;8.436;2023-04-15T10:22:19;99237.84;;;14.12;35.74
40730;BME280;26418;50.070;8.436;2023-04-15T10:24:46;99239.56;;;14.04;33.92
40730;BME280;26418;50.070;8.436;2023-04-15T10:27:13;99236.81;;;13.92;34.83
40730;BME280;26418;50.070;8.436;2023-04-15T10:29:38;99251.75;;;13.98;37.46
40730;BME280;26418;50.070;8.436;2023-04-15T10:32:04;99250.63;;;13.99;37.04
40730;BME280;26418;50.070;8.436;2023-04-15T10:34:30;99249.63;;;13.91;36.66
40730;BME280;26418;50.070;8.436;2023-04-15T10:37:00;99252.25;;;13.88;36.96
40730;BME280;26418;50.070;8.436;2023-04-15T10:42:14;99266.03;;;13.82;37.69
40730;BME280;26418;50.070;8.436;2023-04-15T10:44:50;99259.81;;;13.82;37.57
40730;BME280;26418;50.070;8.436;2023-04-15T10:47:20;99251.97;;;13.68;37.60
40730;BME280;26418;50.070;8.436;2023-04-15T10:49:48;99265.09;;;13.66;38.36
40730;BME280;26418;50.070;8.436;2023-04-15T10:52:22;99269.66;;;13.74;39.46
40730;BME280;26418;50.070;8.436;2023-04-15T10:54:47;99269.44;;;13.92;39.75
40730;BME280;26418;50.070;8.436;2023-04-15T10:57:16;99269.13;;;14.18;38.99
40730;BME280;26418;50.070;8.436;2023-04-15T11:05:03;99275.03;;;14.86;38.47
40730;BME280;26418;50.070;8.436;2023-04-15T11:10:01;99272.72;;;15.00;37.70
40730;BME280;26418;50.070;8.436;2023-04-15T11:12:34;99276.94;;;14.98;37.73
40730;BME280;26418;50.070;8.436;2023-04-15T11:15:33;99278.25;;;15.04;37.78
40730;BME280;26418;50.070;8.436;2023-04-15T11:18:08;99272.91;;;15.07;37.60
40730;BME280;26418;50.070;8.436;2023-04-15T11:20:34;99280.03;;;15.12;37.60
40730;BME280;26418;50.070;8.436;2023-04-15T11:23:00;99270.91;;;15.04;37.62
40730;BME280;26418;50.070;8.436;2023-04-15T11:25:27;99284.13;;;14.77;38.18
40730;BME280;26418;50.070;8.436;2023-04-15T11:27:54;99288.13;;;14.55;38.77
40730;BME280;26418;50.070;8.436;2023-04-15T11:30:24;99282.25;;;14.41;39.38
40730;BME280;26418;50.070;8.436;2023-04-15T11:32:56;99283.50;;;14.43;40.30
40730;BME280;26418;50.070;8.436;2023-04-15T11:35:22;99284.47;;;14.63;40.42
40730;BME280;26418;50.070;8.436;2023-04-15T11:37:48;99285.38;;;14.80;40.19
40730;BME280;26418;50.070;8.436;2023-04-15T11:40:24;99293.81;;;15.03;39.99
40730;BME280;26418;50.070;8.436;2023-04-15T11:43:09;99292.41;;;15.38;39.52
40730;BME280;26418;50.070;8.436;2023-04-15T11:45:36;99289.09;;;15.45;39.26
40730;BME280;26418;50.070;8.436;2023-04-15T11:48:10;99299.16;;;15.56;39.12
40730;BME280;26418;50.070;8.436;2023-04-15T11:50:37;99296.59;;;15.48;39.81
40730;BME280;26418;50.070;8.436;2023-04-15T11:53:05;99309.63;;;15.26;40.38
40730;BME280;26418;50.070;8.436;2023-04-15T11:55:40;99320.59;;;15.01;41.84
40730;BME280;26418;50.070;8.436;2023-04-15T11:58:21;99313.28;;;14.65;42.25
40730;BME280;26418;50.070;8.436;2023-04-15T12:00:58;99335.63;;;14.45;45.23
40730;BME280;26418;50.070;8.436;2023-04-15T12:03:35;99330.28;;;14.12;48.11
40730;BME280;26418;50.070;8.436;2023-04-15T12:06:11;99338.66;;;13.94;48.96
40730;BME280;26418;50.070;8.436;2023-04-15T12:13:54;99353.03;;;13.28;53.51
40730;BME280;26418;50.070;8.436;2023-04-15T12:16:21;99361.56;;;13.17;55.72
40730;BME280;26418;50.070;8.436;2023-04-15T12:18:50;99362.09;;;13.11;56.04
40730;BME280;26418;50.070;8.436;2023-04-15T12:21:19;99369.09;;;13.12;56.89
40730;BME280;26418;50.070;8.436;2023-04-15T12:23:48;99375.16;;;13.17;59.07
40730;BME280;26418;50.070;8.436;2023-04-15T12:26:34;99367.66;;;13.14;58.76
40730;BME280;26418;50.070;8.436;2023-04-15T12:31:27;99377.72;;;13.14;60.11
40730;BME280;26418;50.070;8.436;2023-04-15T12:33:56;99378.97;;;13.16;60.50
40730;BME280;26418;50.070;8.436;2023-04-15T12:36:23;99380.44;;;13.14;59.11
40730;BME280;26418;50.070;8.436;2023-04-15T12:38:48;99388.25;;;13.15;59.87
40730;BME280;26418;50.070;8.436;2023-04-15T12:41:14;99395.88;;;13.22;59.83
40730;BME280;26418;50.070;8.436;2023-04-15T12:43:40;99402.03;;;13.31;58.62
40730;BME280;26418;50.070;8.436;2023-04-15T12:46:06;99403.69;;;13.24;58.70
40730;BME280;26418;50.070;8.436;2023-04-15T12:48:33;99396.81;;;13.26;60.00
40730;BME280;26418;50.070;8.436;2023-04-15T12:50:58;99399.97;;;13.28;59.03
40730;BME280;26418;50.070;8.436;2023-04-15T12:53:24;99404.09;;;13.34;59.41
40730;BME280;26418;50.070;8.436;2023-04-15T12:55:50;99411.69;;;13.20;58.05
40730;BME280;26418;50.070;8.436;2023-04-15T12:58:15;99410.81;;;13.07;58.76
40730;BME280;26418;50.070;8.436;2023-04-15T13:00:41;99415.19;;;12.99;59.77
40730;BME280;26418;50.070;8.436;2023-04-15T13:03:06;99407.94;;;12.82;60.73
40730;BME280;26418;50.070;8.436;2023-04-15T13:05:32;99413.16;;;12.57;60.72
40730;BME280;26418;50.070;8.436;2023-04-15T13:07:57;99415.50;;;12.38;62.05
40730;BME280;26418;50.070;8.436;2023-04-15T13:10:23;99435.31;;;12.21;63.62
40730;BME280;26418;50.070;8.436;2023-04-15T13:12:48;99435.34;;;12.12;64.82
40730;BME280;26418;50.070;8.436;2023-04-15T13:15:16;99441.88;;;12.11;64.79
40730;BME280;26418;50.070;8.436;2023-04-15T13:17:44;99446.03;;;12.08;64.94
40730;BME280;26418;50.070;8.436;2023-04-15T13:20:10;99433.94;;;11.97;64.81
40730;BME280;26418;50.070;8.436;2023-04-15T13:22:35;99439.03;;;11.99;65.42